首页
METAR-TAF:

METAR-TAF

机场 :

皮斯里弗, 艾伯塔, 加拿大

纬度: 56-14N, 经度: 117-26W, 海拔: 571米

当前天气观测

该预报发布于54分钟前的08:00 UTC
风速5节,风向西转西北
温度 -26°C
湿度 76%
气压 1022 hPa
能見度: 24.1公里
天空无云

METAR: CYPE 030800Z 29005KT 15SM SKC M26/M29 A3019 RMK SLP285

时间: 02:54 (08:54 UTC)

预报

该预报发布于2小时和16分钟前的06:38 UTC
预报有效从03日的 07点(UTC)到 03日的 19点(UTC)
风速4节,风向西
能見度: 10公里
天空无云
成为
从 03日的 10点(UTC)到 03日的 12点(UTC)
风速3节,风向多变
从 03日的 1800点(UTC)
风速4节,风向
能見度: 10公里
天空无云

TAF: CYPE 030638Z 0307/0319 27004KT P6SM SKC BECMG 0310/0312 VRB03KT FM031800 19004KT P6SM SKC RMK NXT FCST BY 031300Z

超过4000个机场的气象观测和天气预报(METAR&TAF报告)。

可查询的气象台以黄色和红色小点在地图上表示。

将鼠标移到小点上方,可查看气象台名称。

然后点击查看天气观测和预报。

如需切换地图:点击带黑十字的绿色按钮放大地图;点击带横线的绿色按钮缩小地图;或者点击绿色箭头查看邻近地区的地图。


METAR-TAF: